sensor_id;sensor_type;location;lat;lon;timestamp;P1;durP1;ratioP1;P2;durP2;ratioP2
13607;SDS011;6875;50.852;5.672;2024-03-06T00:02:13;30.33;;;19.83;;
13607;SDS011;6875;50.852;5.672;2024-03-06T00:04:42;26.23;;;18.97;;
13607;SDS011;6875;50.852;5.672;2024-03-06T00:07:09;25.33;;;18.57;;
13607;SDS011;6875;50.852;5.672;2024-03-06T00:09:36;26.73;;;18.07;;
13607;SDS011;6875;50.852;5.672;2024-03-06T00:12:04;24.33;;;17.33;;
13607;SDS011;6875;50.852;5.672;2024-03-06T00:14:31;22.30;;;16.93;;
13607;SDS011;6875;50.852;5.672;2024-03-06T00:16:58;23.47;;;17.40;;
13607;SDS011;6875;50.852;5.672;2024-03-06T00:19:25;26.73;;;18.50;;
13607;SDS011;6875;50.852;5.672;2024-03-06T00:21:53;27.13;;;18.83;;
13607;SDS011;6875;50.852;5.672;2024-03-06T00:24:19;33.90;;;21.93;;
13607;SDS011;6875;50.852;5.672;2024-03-06T00:26:46;32.70;;;20.97;;
13607;SDS011;6875;50.852;5.672;2024-03-06T00:29:14;32.57;;;22.27;;
13607;SDS011;6875;50.852;5.672;2024-03-06T00:31:42;28.37;;;21.27;;
13607;SDS011;6875;50.852;5.672;2024-03-06T00:34:09;29.23;;;22.50;;
13607;SDS011;6875;50.852;5.672;2024-03-06T00:36:36;32.27;;;22.20;;
13607;SDS011;6875;50.852;5.672;2024-03-06T00:39:03;28.63;;;20.53;;
13607;SDS011;6875;50.852;5.672;2024-03-06T00:41:30;30.70;;;21.90;;
13607;SDS011;6875;50.852;5.672;2024-03-06T00:43:56;35.13;;;23.83;;
13607;SDS011;6875;50.852;5.672;2024-03-06T00:46:24;27.83;;;20.80;;
13607;SDS011;6875;50.852;5.672;2024-03-06T00:48:51;31.83;;;21.80;;
13607;SDS011;6875;50.852;5.672;2024-03-06T00:51:17;30.43;;;20.03;;
13607;SDS011;6875;50.852;5.672;2024-03-06T00:53:44;28.23;;;19.07;;
13607;SDS011;6875;50.852;5.672;2024-03-06T00:56:11;29.73;;;20.10;;
13607;SDS011;6875;50.852;5.672;2024-03-06T00:58:37;27.47;;;19.87;;
13607;SDS011;6875;50.852;5.672;2024-03-06T01:01:04;26.47;;;18.27;;
13607;SDS011;6875;50.852;5.672;2024-03-06T01:03:32;23.67;;;18.07;;
13607;SDS011;6875;50.852;5.672;2024-03-06T01:06:03;24.40;;;19.70;;
13607;SDS011;6875;50.852;5.672;2024-03-06T01:08:31;25.57;;;19.20;;
13607;SDS011;6875;50.852;5.672;2024-03-06T01:10:58;28.73;;;19.83;;
13607;SDS011;6875;50.852;5.672;2024-03-06T01:13:25;28.37;;;19.40;;
13607;SDS011;6875;50.852;5.672;2024-03-06T01:15:51;27.90;;;19.97;;
13607;SDS011;6875;50.852;5.672;2024-03-06T01:18:18;26.73;;;20.40;;
13607;SDS011;6875;50.852;5.672;2024-03-06T01:20:46;27.77;;;20.53;;
13607;SDS011;6875;50.852;5.672;2024-03-06T01:23:13;31.90;;;22.03;;
13607;SDS011;6875;50.852;5.672;2024-03-06T01:25:39;30.80;;;22.27;;
13607;SDS011;6875;50.852;5.672;2024-03-06T01:28:06;35.00;;;24.53;;
13607;SDS011;6875;50.852;5.672;2024-03-06T01:30:33;30.87;;;22.37;;
13607;SDS011;6875;50.852;5.672;2024-03-06T01:32:59;31.43;;;22.97;;
13607;SDS011;6875;50.852;5.672;2024-03-06T01:35:26;30.47;;;21.70;;
13607;SDS011;6875;50.852;5.672;2024-03-06T01:37:54;34.47;;;24.53;;
13607;SDS011;6875;50.852;5.672;2024-03-06T01:40:20;31.13;;;23.10;;
13607;SDS011;6875;50.852;5.672;2024-03-06T01:42:47;45.47;;;26.20;;
13607;SDS011;6875;50.852;5.672;2024-03-06T01:45:14;37.83;;;24.90;;
13607;SDS011;6875;50.852;5.672;2024-03-06T01:47:41;41.17;;;28.47;;
13607;SDS011;6875;50.852;5.672;2024-03-06T01:50:07;38.40;;;27.50;;
13607;SDS011;6875;50.852;5.672;2024-03-06T01:52:35;45.67;;;29.43;;
13607;SDS011;6875;50.852;5.672;2024-03-06T01:55:04;37.40;;;26.50;;
13607;SDS011;6875;50.852;5.672;2024-03-06T01:57:31;42.50;;;28.73;;
13607;SDS011;6875;50.852;5.672;2024-03-06T01:59:57;41.40;;;26.90;;
13607;SDS011;6875;50.852;5.672;2024-03-06T02:02:24;37.70;;;26.30;;
13607;SDS011;6875;50.852;5.672;2024-03-06T02:04:52;46.50;;;29.53;;
13607;SDS011;6875;50.852;5.672;2024-03-06T02:07:19;43.27;;;28.70;;
13607;SDS011;6875;50.852;5.672;2024-03-06T02:09:46;41.60;;;28.53;;
13607;SDS011;6875;50.852;5.672;2024-03-06T02:12:15;39.57;;;28.13;;
13607;SDS011;6875;50.852;5.672;2024-03-06T02:14:42;46.17;;;31.40;;
13607;SDS011;6875;50.852;5.672;2024-03-06T02:17:09;43.13;;;29.53;;
13607;SDS011;6875;50.852;5.672;2024-03-06T02:19:37;39.03;;;27.90;;
13607;SDS011;6875;50.852;5.672;2024-03-06T02:22:06;48.47;;;30.73;;
13607;SDS011;6875;50.852;5.672;2024-03-06T02:24:32;47.07;;;31.90;;
13607;SDS011;6875;50.852;5.672;2024-03-06T02:26:59;49.80;;;30.40;;
13607;SDS011;6875;50.852;5.672;2024-03-06T02:29:26;52.53;;;33.57;;
13607;SDS011;6875;50.852;5.672;2024-03-06T02:31:52;49.67;;;33.90;;
13607;SDS011;6875;50.852;5.672;2024-03-06T02:34:19;56.23;;;32.83;;
13607;SDS011;6875;50.852;5.672;2024-03-06T02:36:46;51.13;;;32.97;;
13607;SDS011;6875;50.852;5.672;2024-03-06T02:39:14;43.50;;;29.27;;
13607;SDS011;6875;50.852;5.672;2024-03-06T02:41:40;48.17;;;29.63;;
13607;SDS011;6875;50.852;5.672;2024-03-06T02:44:07;43.10;;;31.23;;
13607;SDS011;6875;50.852;5.672;2024-03-06T02:46:34;47.40;;;31.17;;
13607;SDS011;6875;50.852;5.672;2024-03-06T02:49:01;47.73;;;30.90;;
13607;SDS011;6875;50.852;5.672;2024-03-06T02:51:28;56.53;;;33.07;;
13607;SDS011;6875;50.852;5.672;2024-03-06T02:53:54;47.83;;;31.20;;
13607;SDS011;6875;50.852;5.672;2024-03-06T02:56:22;46.17;;;32.43;;
13607;SDS011;6875;50.852;5.672;2024-03-06T02:58:49;50.53;;;32.30;;
13607;SDS011;6875;50.852;5.672;2024-03-06T03:01:15;50.27;;;33.07;;
13607;SDS011;6875;50.852;5.672;2024-03-06T03:03:42;65.95;;;48.45;;
13607;SDS011;6875;50.852;5.672;2024-03-06T03:06:09;76.88;;;53.40;;
13607;SDS011;6875;50.852;5.672;2024-03-06T03:08:37;73.83;;;44.03;;
13607;SDS011;6875;50.852;5.672;2024-03-06T03:11:04;60.07;;;37.70;;
13607;SDS011;6875;50.852;5.672;2024-03-06T03:13:32;61.70;;;37.73;;
13607;SDS011;6875;50.852;5.672;2024-03-06T03:15:59;57.33;;;33.43;;
13607;SDS011;6875;50.852;5.672;2024-03-06T03:18:29;53.23;;;34.33;;
13607;SDS011;6875;50.852;5.672;2024-03-06T03:20:55;58.50;;;36.57;;
13607;SDS011;6875;50.852;5.672;2024-03-06T03:23:22;64.07;;;37.00;;
13607;SDS011;6875;50.852;5.672;2024-03-06T03:25:48;67.57;;;37.77;;
13607;SDS011;6875;50.852;5.672;2024-03-06T03:28:15;68.03;;;39.83;;
13607;SDS011;6875;50.852;5.672;2024-03-06T03:30:43;76.97;;;42.77;;
13607;SDS011;6875;50.852;5.672;2024-03-06T03:33:10;86.80;;;45.30;;
13607;SDS011;6875;50.852;5.672;2024-03-06T03:35:37;71.60;;;40.83;;
13607;SDS011;6875;50.852;5.672;2024-03-06T03:38:04;90.20;;;47.50;;
13607;SDS011;6875;50.852;5.672;2024-03-06T03:40:31;71.20;;;41.27;;
13607;SDS011;6875;50.852;5.672;2024-03-06T03:42:58;73.33;;;41.87;;
13607;SDS011;6875;50.852;5.672;2024-03-06T03:45:31;90.73;;;48.03;;
13607;SDS011;6875;50.852;5.672;2024-03-06T03:47:59;75.23;;;43.40;;
13607;SDS011;6875;50.852;5.672;2024-03-06T03:50:27;75.33;;;42.67;;
13607;SDS011;6875;50.852;5.672;2024-03-06T03:52:54;90.93;;;45.80;;
13607;SDS011;6875;50.852;5.672;2024-03-06T03:55:23;88.03;;;46.97;;
13607;SDS011;6875;50.852;5.672;2024-03-06T03:57:50;89.27;;;48.30;;
13607;SDS011;6875;50.852;5.672;2024-03-06T04:00:17;91.03;;;47.63;;
13607;SDS011;6875;50.852;5.672;2024-03-06T04:02:44;82.50;;;46.23;;
13607;SDS011;6875;50.852;5.672;2024-03-06T04:05:12;83.07;;;45.70;;
13607;SDS011;6875;50.852;5.672;2024-03-06T04:07:39;83.03;;;46.33;;
13607;SDS011;6875;50.852;5.672;2024-03-06T04:10:07;81.73;;;45.30;;
13607;SDS011;6875;50.852;5.672;2024-03-06T04:12:36;84.73;;;46.93;;
13607;SDS011;6875;50.852;5.672;2024-03-06T04:15:04;73.27;;;44.77;;
13607;SDS011;6875;50.852;5.672;2024-03-06T04:17:31;77.20;;;44.77;;
13607;SDS011;6875;50.852;5.672;2024-03-06T04:19:58;81.03;;;44.67;;
13607;SDS011;6875;50.852;5.672;2024-03-06T04:22:26;77.63;;;44.73;;
13607;SDS011;6875;50.852;5.672;2024-03-06T04:24:54;97.30;;;50.27;;
13607;SDS011;6875;50.852;5.672;2024-03-06T04:27:23;77.33;;;42.93;;
13607;SDS011;6875;50.852;5.672;2024-03-06T04:29:50;75.87;;;44.87;;
13607;SDS011;6875;50.852;5.672;2024-03-06T04:32:17;72.90;;;43.67;;
13607;SDS011;6875;50.852;5.672;2024-03-06T04:34:44;72.63;;;44.77;;
13607;SDS011;6875;50.852;5.672;2024-03-06T04:37:11;79.13;;;45.03;;
13607;SDS011;6875;50.852;5.672;2024-03-06T04:39:39;76.37;;;42.77;;
13607;SDS011;6875;50.852;5.672;2024-03-06T04:42:06;100.43;;;64.20;;
13607;SDS011;6875;50.852;5.672;2024-03-06T04:44:33;76.47;;;45.53;;
13607;SDS011;6875;50.852;5.672;2024-03-06T04:47:00;81.63;;;46.17;;
13607;SDS011;6875;50.852;5.672;2024-03-06T04:49:26;66.30;;;42.13;;
13607;SDS011;6875;50.852;5.672;2024-03-06T04:51:53;71.77;;;41.80;;
13607;SDS011;6875;50.852;5.672;2024-03-06T04:54:20;70.67;;;41.60;;
13607;SDS011;6875;50.852;5.672;2024-03-06T04:56:48;70.03;;;41.33;;
13607;SDS011;6875;50.852;5.672;2024-03-06T04:59:14;66.70;;;40.83;;
13607;SDS011;6875;50.852;5.672;2024-03-06T05:01:41;66.03;;;40.90;;
13607;SDS011;6875;50.852;5.672;2024-03-06T05:04:08;80.00;;;44.93;;
13607;SDS011;6875;50.852;5.672;2024-03-06T05:06:36;76.87;;;43.63;;
13607;SDS011;6875;50.852;5.672;2024-03-06T05:09:03;75.00;;;41.03;;
13607;SDS011;6875;50.852;5.672;2024-03-06T05:11:31;75.33;;;43.60;;
13607;SDS011;6875;50.852;5.672;2024-03-06T05:13:59;68.07;;;42.20;;
13607;SDS011;6875;50.852;5.672;2024-03-06T05:16:25;80.90;;;44.37;;
13607;SDS011;6875;50.852;5.672;2024-03-06T05:18:52;76.57;;;42.17;;
13607;SDS011;6875;50.852;5.672;2024-03-06T05:21:19;83.53;;;44.80;;
13607;SDS011;6875;50.852;5.672;2024-03-06T05:23:47;76.60;;;42.07;;
13607;SDS011;6875;50.852;5.672;2024-03-06T05:26:14;75.07;;;42.57;;
13607;SDS011;6875;50.852;5.672;2024-03-06T05:28:40;82.90;;;45.10;;
13607;SDS011;6875;50.852;5.672;2024-03-06T05:31:16;68.00;;;40.83;;
13607;SDS011;6875;50.852;5.672;2024-03-06T05:33:44;74.70;;;42.23;;
13607;SDS011;6875;50.852;5.672;2024-03-06T05:36:12;74.77;;;41.50;;
13607;SDS011;6875;50.852;5.672;2024-03-06T05:38:39;77.90;;;44.60;;
13607;SDS011;6875;50.852;5.672;2024-03-06T05:41:06;78.93;;;43.03;;
13607;SDS011;6875;50.852;5.672;2024-03-06T05:43:33;66.87;;;38.87;;
13607;SDS011;6875;50.852;5.672;2024-03-06T05:46:03;60.73;;;36.50;;
13607;SDS011;6875;50.852;5.672;2024-03-06T05:48:31;64.87;;;39.93;;
13607;SDS011;6875;50.852;5.672;2024-03-06T05:50:58;61.87;;;35.47;;
13607;SDS011;6875;50.852;5.672;2024-03-06T05:53:24;59.17;;;35.13;;
13607;SDS011;6875;50.852;5.672;2024-03-06T05:55:51;58.50;;;35.67;;
13607;SDS011;6875;50.852;5.672;2024-03-06T05:58:19;65.70;;;38.33;;
13607;SDS011;6875;50.852;5.672;2024-03-06T06:00:46;57.17;;;33.73;;
13607;SDS011;6875;50.852;5.672;2024-03-06T06:03:12;55.63;;;34.50;;
13607;SDS011;6875;50.852;5.672;2024-03-06T06:05:41;51.17;;;31.57;;
13607;SDS011;6875;50.852;5.672;2024-03-06T06:08:07;52.47;;;33.43;;
13607;SDS011;6875;50.852;5.672;2024-03-06T06:10:34;53.83;;;34.00;;
13607;SDS011;6875;50.852;5.672;2024-03-06T06:13:01;61.20;;;37.83;;
13607;SDS011;6875;50.852;5.672;2024-03-06T06:15:29;61.33;;;37.00;;
13607;SDS011;6875;50.852;5.672;2024-03-06T06:17:56;65.07;;;40.63;;
13607;SDS011;6875;50.852;5.672;2024-03-06T06:20:23;74.50;;;41.10;;
13607;SDS011;6875;50.852;5.672;2024-03-06T06:22:52;56.53;;;35.63;;
13607;SDS011;6875;50.852;5.672;2024-03-06T06:25:18;59.47;;;35.97;;
13607;SDS011;6875;50.852;5.672;2024-03-06T06:27:45;61.10;;;38.00;;
13607;SDS011;6875;50.852;5.672;2024-03-06T06:30:14;64.83;;;38.40;;
13607;SDS011;6875;50.852;5.672;2024-03-06T06:32:41;58.23;;;35.73;;
13607;SDS011;6875;50.852;5.672;2024-03-06T06:35:09;57.20;;;37.33;;
13607;SDS011;6875;50.852;5.672;2024-03-06T06:37:36;66.40;;;40.53;;
13607;SDS011;6875;50.852;5.672;2024-03-06T06:40:05;80.27;;;43.90;;
13607;SDS011;6875;50.852;5.672;2024-03-06T06:42:33;127.50;;;51.43;;
13607;SDS011;6875;50.852;5.672;2024-03-06T06:45:01;146.23;;;52.53;;
13607;SDS011;6875;50.852;5.672;2024-03-06T06:47:28;192.17;;;58.33;;
13607;SDS011;6875;50.852;5.672;2024-03-06T06:49:55;295.80;;;71.30;;
13607;SDS011;6875;50.852;5.672;2024-03-06T06:52:21;228.77;;;58.27;;
13607;SDS011;6875;50.852;5.672;2024-03-06T06:54:48;136.57;;;50.83;;
13607;SDS011;6875;50.852;5.672;2024-03-06T06:57:17;283.07;;;67.97;;
13607;SDS011;6875;50.852;5.672;2024-03-06T06:59:45;187.73;;;56.87;;
13607;SDS011;6875;50.852;5.672;2024-03-06T07:02:11;371.90;;;79.57;;
13607;SDS011;6875;50.852;5.672;2024-03-06T07:04:38;255.87;;;60.37;;
13607;SDS011;6875;50.852;5.672;2024-03-06T07:07:05;146.10;;;54.80;;
13607;SDS011;6875;50.852;5.672;2024-03-06T07:09:32;192.50;;;61.00;;
13607;SDS011;6875;50.852;5.672;2024-03-06T07:11:59;149.97;;;52.90;;
13607;SDS011;6875;50.852;5.672;2024-03-06T07:14:29;125.87;;;48.17;;
13607;SDS011;6875;50.852;5.672;2024-03-06T07:16:55;131.57;;;47.60;;
13607;SDS011;6875;50.852;5.672;2024-03-06T07:19:23;253.80;;;64.87;;
13607;SDS011;6875;50.852;5.672;2024-03-06T07:21:50;209.33;;;61.00;;
13607;SDS011;6875;50.852;5.672;2024-03-06T07:24:17;162.33;;;56.63;;
13607;SDS011;6875;50.852;5.672;2024-03-06T07:26:43;157.73;;;54.37;;
13607;SDS011;6875;50.852;5.672;2024-03-06T07:29:10;132.23;;;48.77;;
13607;SDS011;6875;50.852;5.672;2024-03-06T07:31:41;258.47;;;70.83;;
13607;SDS011;6875;50.852;5.672;2024-03-06T07:34:08;122.80;;;51.30;;
13607;SDS011;6875;50.852;5.672;2024-03-06T07:36:34;161.87;;;51.43;;
13607;SDS011;6875;50.852;5.672;2024-03-06T07:39:01;110.50;;;50.03;;
13607;SDS011;6875;50.852;5.672;2024-03-06T07:41:29;152.33;;;55.70;;
13607;SDS011;6875;50.852;5.672;2024-03-06T07:43:57;156.93;;;55.80;;
13607;SDS011;6875;50.852;5.672;2024-03-06T07:46:24;80.80;;;44.20;;
13607;SDS011;6875;50.852;5.672;2024-03-06T07:48:53;94.97;;;47.20;;
13607;SDS011;6875;50.852;5.672;2024-03-06T07:51:20;81.77;;;45.87;;
13607;SDS011;6875;50.852;5.672;2024-03-06T07:53:46;111.43;;;51.87;;
13607;SDS011;6875;50.852;5.672;2024-03-06T07:56:15;107.57;;;51.63;;
13607;SDS011;6875;50.852;5.672;2024-03-06T07:58:43;100.40;;;51.67;;
13607;SDS011;6875;50.852;5.672;2024-03-06T08:01:09;108.87;;;51.33;;
13607;SDS011;6875;50.852;5.672;2024-03-06T08:03:38;119.97;;;54.47;;
13607;SDS011;6875;50.852;5.672;2024-03-06T08:06:07;98.00;;;49.13;;
13607;SDS011;6875;50.852;5.672;2024-03-06T08:08:33;128.90;;;57.60;;
13607;SDS011;6875;50.852;5.672;2024-03-06T08:11:00;93.67;;;52.00;;
13607;SDS011;6875;50.852;5.672;2024-03-06T08:13:27;90.17;;;50.27;;
13607;SDS011;6875;50.852;5.672;2024-03-06T08:15:55;87.57;;;49.37;;
13607;SDS011;6875;50.852;5.672;2024-03-06T08:18:21;80.33;;;47.30;;
13607;SDS011;6875;50.852;5.672;2024-03-06T08:20:48;81.07;;;48.10;;
13607;SDS011;6875;50.852;5.672;2024-03-06T08:23:16;78.83;;;47.93;;
13607;SDS011;6875;50.852;5.672;2024-03-06T08:25:42;71.93;;;44.17;;
13607;SDS011;6875;50.852;5.672;2024-03-06T08:28:10;68.47;;;42.87;;
13607;SDS011;6875;50.852;5.672;2024-03-06T08:30:36;67.97;;;45.60;;
13607;SDS011;6875;50.852;5.672;2024-03-06T08:33:03;72.20;;;44.33;;
13607;SDS011;6875;50.852;5.672;2024-03-06T08:35:30;59.43;;;39.90;;
13607;SDS011;6875;50.852;5.672;2024-03-06T08:37:57;55.10;;;38.70;;
13607;SDS011;6875;50.852;5.672;2024-03-06T08:40:25;58.33;;;40.20;;
13607;SDS011;6875;50.852;5.672;2024-03-06T08:42:53;57.97;;;39.30;;
13607;SDS011;6875;50.852;5.672;2024-03-06T08:45:20;61.93;;;41.27;;
13607;SDS011;6875;50.852;5.672;2024-03-06T08:47:48;54.53;;;37.10;;
13607;SDS011;6875;50.852;5.672;2024-03-06T08:50:15;54.00;;;37.43;;
13607;SDS011;6875;50.852;5.672;2024-03-06T08:52:42;45.53;;;33.27;;
13607;SDS011;6875;50.852;5.672;2024-03-06T08:55:09;48.00;;;34.03;;
13607;SDS011;6875;50.852;5.672;2024-03-06T08:57:37;41.57;;;32.10;;
13607;SDS011;6875;50.852;5.672;2024-03-06T09:00:05;42.67;;;32.13;;
13607;SDS011;6875;50.852;5.672;2024-03-06T09:02:35;45.27;;;31.17;;
13607;SDS011;6875;50.852;5.672;2024-03-06T09:05:03;44.60;;;33.37;;
13607;SDS011;6875;50.852;5.672;2024-03-06T09:07:31;42.83;;;31.67;;
13607;SDS011;6875;50.852;5.672;2024-03-06T09:10:02;41.40;;;30.43;;
13607;SDS011;6875;50.852;5.672;2024-03-06T09:12:30;43.63;;;31.43;;
13607;SDS011;6875;50.852;5.672;2024-03-06T09:14:58;41.87;;;30.57;;
13607;SDS011;6875;50.852;5.672;2024-03-06T09:17:25;41.67;;;31.93;;
13607;SDS011;6875;50.852;5.672;2024-03-06T09:19:52;41.57;;;30.53;;
13607;SDS011;6875;50.852;5.672;2024-03-06T09:22:19;45.07;;;33.10;;
13607;SDS011;6875;50.852;5.672;2024-03-06T09:24:45;41.83;;;31.07;;
13607;SDS011;6875;50.852;5.672;2024-03-06T09:27:13;37.53;;;27.87;;
13607;SDS011;6875;50.852;5.672;2024-03-06T09:29:40;39.40;;;28.07;;
13607;SDS011;6875;50.852;5.672;2024-03-06T09:32:09;34.97;;;26.37;;
13607;SDS011;6875;50.852;5.672;2024-03-06T09:34:38;35.13;;;26.27;;
13607;SDS011;6875;50.852;5.672;2024-03-06T09:37:04;33.87;;;27.07;;
13607;SDS011;6875;50.852;5.672;2024-03-06T09:39:31;33.17;;;25.90;;
13607;SDS011;6875;50.852;5.672;2024-03-06T09:41:59;32.83;;;25.17;;
13607;SDS011;6875;50.852;5.672;2024-03-06T09:44:26;31.17;;;24.60;;
13607;SDS011;6875;50.852;5.672;2024-03-06T09:46:56;30.80;;;23.80;;
13607;SDS011;6875;50.852;5.672;2024-03-06T09:49:27;31.50;;;24.07;;
13607;SDS011;6875;50.852;5.672;2024-03-06T09:51:54;36.40;;;27.23;;
13607;SDS011;6875;50.852;5.672;2024-03-06T09:54:23;35.60;;;26.40;;
13607;SDS011;6875;50.852;5.672;2024-03-06T09:56:51;37.00;;;28.33;;
13607;SDS011;6875;50.852;5.672;2024-03-06T09:59:20;37.37;;;26.93;;
13607;SDS011;6875;50.852;5.672;2024-03-06T10:01:49;41.20;;;28.50;;
13607;SDS011;6875;50.852;5.672;2024-03-06T10:04:17;39.50;;;28.27;;
13607;SDS011;6875;50.852;5.672;2024-03-06T10:06:45;37.03;;;26.37;;
13607;SDS011;6875;50.852;5.672;2024-03-06T10:09:12;33.37;;;26.53;;
13607;SDS011;6875;50.852;5.672;2024-03-06T10:11:39;33.80;;;25.90;;
13607;SDS011;6875;50.852;5.672;2024-03-06T10:14:07;35.17;;;26.03;;
13607;SDS011;6875;50.852;5.672;2024-03-06T10:16:35;37.10;;;24.93;;
13607;SDS011;6875;50.852;5.672;2024-03-06T10:19:14;33.87;;;26.57;;
13607;SDS011;6875;50.852;5.672;2024-03-06T10:21:42;35.80;;;26.97;;
13607;SDS011;6875;50.852;5.672;2024-03-06T10:24:12;32.67;;;25.30;;
13607;SDS011;6875;50.852;5.672;2024-03-06T10:26:38;36.10;;;25.27;;
13607;SDS011;6875;50.852;5.672;2024-03-06T10:29:05;33.87;;;26.07;;
13607;SDS011;6875;50.852;5.672;2024-03-06T10:31:32;33.77;;;24.63;;
13607;SDS011;6875;50.852;5.672;2024-03-06T10:33:59;29.10;;;22.83;;
13607;SDS011;6875;50.852;5.672;2024-03-06T10:36:26;36.67;;;25.40;;
13607;SDS011;6875;50.852;5.672;2024-03-06T10:38:52;30.20;;;24.77;;
13607;SDS011;6875;50.852;5.672;2024-03-06T10:41:23;30.30;;;20.77;;
13607;SDS011;6875;50.852;5.672;2024-03-06T10:43:51;27.27;;;21.07;;
13607;SDS011;6875;50.852;5.672;2024-03-06T10:46:19;28.13;;;21.83;;
13607;SDS011;6875;50.852;5.672;2024-03-06T10:48:46;27.83;;;20.60;;
13607;SDS011;6875;50.852;5.672;2024-03-06T10:51:15;18.33;;;14.20;;
13607;SDS011;6875;50.852;5.672;2024-03-06T10:53:42;14.87;;;12.10;;
13607;SDS011;6875;50.852;5.672;2024-03-06T10:56:09;14.53;;;11.53;;
13607;SDS011;6875;50.852;5.672;2024-03-06T10:58:37;13.03;;;11.40;;
13607;SDS011;6875;50.852;5.672;2024-03-06T11:01:05;11.63;;;10.13;;
13607;SDS011;6875;50.852;5.672;2024-03-06T11:03:33;14.23;;;11.07;;
13607;SDS011;6875;50.852;5.672;2024-03-06T11:06:02;12.27;;;9.90;;
13607;SDS011;6875;50.852;5.672;2024-03-06T11:08:29;12.57;;;10.20;;
13607;SDS011;6875;50.852;5.672;2024-03-06T11:13:48;12.33;;;9.67;;
13607;SDS011;6875;50.852;5.672;2024-03-06T11:16:14;8.83;;;7.50;;
13607;SDS011;6875;50.852;5.672;2024-03-06T11:18:42;10.03;;;8.20;;
13607;SDS011;6875;50.852;5.672;2024-03-06T11:21:28;19.33;;;12.73;;
13607;SDS011;6875;50.852;5.672;2024-03-06T11:26:42;11.97;;;9.13;;
13607;SDS011;6875;50.852;5.672;2024-03-06T11:29:13;11.17;;;9.97;;
13607;SDS011;6875;50.852;5.672;2024-03-06T11:31:55;8.83;;;7.93;;
13607;SDS011;6875;50.852;5.672;2024-03-06T11:34:23;10.07;;;7.67;;
13607;SDS011;6875;50.852;5.672;2024-03-06T11:36:53;9.90;;;7.97;;
13607;SDS011;6875;50.852;5.672;2024-03-06T11:39:20;10.67;;;8.77;;
13607;SDS011;6875;50.852;5.672;2024-03-06T11:41:47;9.83;;;8.57;;
13607;SDS011;6875;50.852;5.672;2024-03-06T11:44:16;10.30;;;8.30;;
13607;SDS011;6875;50.852;5.672;2024-03-06T11:46:46;9.13;;;8.23;;
13607;SDS011;6875;50.852;5.672;2024-03-06T11:49:17;12.00;;;8.57;;
13607;SDS011;6875;50.852;5.672;2024-03-06T11:51:45;9.73;;;7.77;;
13607;SDS011;6875;50.852;5.672;2024-03-06T11:54:13;8.73;;;7.80;;
13607;SDS011;6875;50.852;5.672;2024-03-06T11:56:40;10.60;;;8.40;;
13607;SDS011;6875;50.852;5.672;2024-03-06T11:59:06;10.20;;;8.60;;
13607;SDS011;6875;50.852;5.672;2024-03-06T12:01:36;10.43;;;8.37;;
13607;SDS011;6875;50.852;5.672;2024-03-06T12:04:06;12.03;;;9.43;;
13607;SDS011;6875;50.852;5.672;2024-03-06T12:06:33;9.50;;;8.50;;
13607;SDS011;6875;50.852;5.672;2024-03-06T12:08:59;9.57;;;8.17;;
13607;SDS011;6875;50.852;5.672;2024-03-06T12:11:27;12.30;;;8.60;;
13607;SDS011;6875;50.852;5.672;2024-03-06T12:13:55;12.00;;;10.67;;
13607;SDS011;6875;50.852;5.672;2024-03-06T12:16:22;14.73;;;11.83;;
13607;SDS011;6875;50.852;5.672;2024-03-06T12:18:55;17.83;;;15.20;;
13607;SDS011;6875;50.852;5.672;2024-03-06T12:21:23;24.93;;;17.33;;
13607;SDS011;6875;50.852;5.672;2024-03-06T12:24:01;23.73;;;18.23;;
13607;SDS011;6875;50.852;5.672;2024-03-06T12:26:29;22.20;;;18.83;;
13607;SDS011;6875;50.852;5.672;2024-03-06T12:29:03;25.47;;;20.13;;
13607;SDS011;6875;50.852;5.672;2024-03-06T12:31:31;23.20;;;19.23;;
13607;SDS011;6875;50.852;5.672;2024-03-06T12:34:00;23.00;;;18.63;;
13607;SDS011;6875;50.852;5.672;2024-03-06T12:36:28;22.47;;;19.40;;
13607;SDS011;6875;50.852;5.672;2024-03-06T12:38:56;20.00;;;17.00;;
13607;SDS011;6875;50.852;5.672;2024-03-06T12:41:24;19.57;;;17.37;;
13607;SDS011;6875;50.852;5.672;2024-03-06T12:43:51;22.23;;;18.43;;
13607;SDS011;6875;50.852;5.672;2024-03-06T12:46:17;23.73;;;20.80;;
13607;SDS011;6875;50.852;5.672;2024-03-06T12:48:44;22.47;;;19.63;;
13607;SDS011;6875;50.852;5.672;2024-03-06T12:51:13;26.67;;;20.40;;
13607;SDS011;6875;50.852;5.672;2024-03-06T12:53:39;26.77;;;21.13;;
13607;SDS011;6875;50.852;5.672;2024-03-06T12:56:06;25.60;;;21.20;;
13607;SDS011;6875;50.852;5.672;2024-03-06T12:58:33;23.80;;;20.70;;
13607;SDS011;6875;50.852;5.672;2024-03-06T13:01:00;25.50;;;21.07;;
13607;SDS011;6875;50.852;5.672;2024-03-06T13:03:30;25.70;;;20.93;;
13607;SDS011;6875;50.852;5.672;2024-03-06T13:05:59;25.47;;;20.97;;
13607;SDS011;6875;50.852;5.672;2024-03-06T13:08:27;30.57;;;23.37;;
13607;SDS011;6875;50.852;5.672;2024-03-06T13:10:54;28.13;;;22.07;;
13607;SDS011;6875;50.852;5.672;2024-03-06T13:13:21;29.63;;;23.37;;
13607;SDS011;6875;50.852;5.672;2024-03-06T13:15:49;27.90;;;21.90;;
13607;SDS011;6875;50.852;5.672;2024-03-06T13:18:18;28.43;;;20.53;;
13607;SDS011;6875;50.852;5.672;2024-03-06T13:20:45;25.60;;;21.57;;
13607;SDS011;6875;50.852;5.672;2024-03-06T13:23:11;28.23;;;20.77;;
13607;SDS011;6875;50.852;5.672;2024-03-06T13:25:39;26.00;;;21.30;;
13607;SDS011;6875;50.852;5.672;2024-03-06T13:28:06;25.73;;;20.17;;
13607;SDS011;6875;50.852;5.672;2024-03-06T13:30:33;25.70;;;20.47;;
13607;SDS011;6875;50.852;5.672;2024-03-06T13:33:00;24.23;;;18.90;;
13607;SDS011;6875;50.852;5.672;2024-03-06T13:35:27;26.63;;;20.67;;
13607;SDS011;6875;50.852;5.672;2024-03-06T13:37:56;27.73;;;21.00;;
13607;SDS011;6875;50.852;5.672;2024-03-06T13:40:22;25.60;;;20.27;;
13607;SDS011;6875;50.852;5.672;2024-03-06T13:42:52;29.57;;;21.50;;
13607;SDS011;6875;50.852;5.672;2024-03-06T13:45:21;28.83;;;21.67;;
13607;SDS011;6875;50.852;5.672;2024-03-06T13:47:48;25.77;;;19.83;;
13607;SDS011;6875;50.852;5.672;2024-03-06T13:50:15;23.80;;;18.10;;
13607;SDS011;6875;50.852;5.672;2024-03-06T13:52:42;21.73;;;17.97;;
13607;SDS011;6875;50.852;5.672;2024-03-06T13:55:09;23.87;;;16.50;;
13607;SDS011;6875;50.852;5.672;2024-03-06T13:57:37;19.37;;;15.87;;
13607;SDS011;6875;50.852;5.672;2024-03-06T14:00:07;21.37;;;15.73;;
13607;SDS011;6875;50.852;5.672;2024-03-06T14:02:37;19.53;;;15.30;;
13607;SDS011;6875;50.852;5.672;2024-03-06T14:05:04;23.00;;;15.43;;
13607;SDS011;6875;50.852;5.672;2024-03-06T14:07:31;23.93;;;16.23;;
13607;SDS011;6875;50.852;5.672;2024-03-06T14:09:58;19.10;;;15.40;;
13607;SDS011;6875;50.852;5.672;2024-03-06T14:12:25;19.87;;;15.13;;
13607;SDS011;6875;50.852;5.672;2024-03-06T14:14:52;19.30;;;15.03;;
13607;SDS011;6875;50.852;5.672;2024-03-06T14:17:20;18.47;;;14.73;;
13607;SDS011;6875;50.852;5.672;2024-03-06T14:19:46;20.13;;;15.27;;
13607;SDS011;6875;50.852;5.672;2024-03-06T14:22:13;19.20;;;15.13;;
13607;SDS011;6875;50.852;5.672;2024-03-06T14:24:41;20.63;;;16.30;;
13607;SDS011;6875;50.852;5.672;2024-03-06T14:27:08;19.40;;;15.13;;
13607;SDS011;6875;50.852;5.672;2024-03-06T14:29:35;18.03;;;15.33;;
13607;SDS011;6875;50.852;5.672;2024-03-06T14:32:01;19.10;;;15.10;;
13607;SDS011;6875;50.852;5.672;2024-03-06T14:34:30;20.60;;;15.80;;
13607;SDS011;6875;50.852;5.672;2024-03-06T14:36:57;18.90;;;15.13;;
13607;SDS011;6875;50.852;5.672;2024-03-06T14:39:23;20.07;;;15.17;;
13607;SDS011;6875;50.852;5.672;2024-03-06T14:41:50;19.53;;;13.90;;